Time;durP1;ratioP1;P1;durP2;ratioP2;P2;SDS_P1;SDS_P2;PMS_P1;PMS_P2;Temp;Humidity;BMP_temperature;BMP_pressure;BME280_temperature;BME280_humidity;BME280_pressure;Samples;Min_cycle;Max_cycle;Signal;HPM_P1;HPM_P2
2023/04/01 00:01:25;;;;;;;3.13;1.42;;;21.20;60.20;;;;;;6195316;28;88378;-68
2023/04/01 00:04:27;;;;;;;2.75;1.25;;;21.20;60.20;;;;;;6192208;28;89193;-68
2023/04/01 00:07:31;;;;;;;2.25;1.00;;;21.20;60.20;;;;;;6201004;28;88952;-68
2023/04/01 00:10:33;;;;;;;2.42;1.15;;;21.20;60.20;;;;;;6201645;28;90043;-68
2023/04/01 00:13:35;;;;;;;3.30;1.33;;;21.20;60.20;;;;;;6199143;28;89437;-68
2023/04/01 00:16:37;;;;;;;3.60;1.55;;;21.20;60.40;;;;;;6207269;28;88965;-68
2023/04/01 00:19:39;;;;;;;1.77;0.90;;;21.20;60.40;;;;;;6196129;28;87963;-68
2023/04/01 00:22:44;;;;;;;1.60;1.00;;;21.20;60.50;;;;;;6202937;28;89297;-68
2023/04/01 00:25:47;;;;;;;1.75;1.10;;;21.20;60.40;;;;;;6203871;28;89424;-68
2023/04/01 00:28:50;;;;;;;1.70;1.05;;;21.20;60.50;;;;;;6204620;28;89230;-68
2023/04/01 00:31:52;;;;;;;1.55;0.90;;;21.20;60.50;;;;;;6198294;28;88345;-68
2023/04/01 00:34:54;;;;;;;1.52;0.93;;;21.20;60.50;;;;;;6195455;28;89099;-68
2023/04/01 00:37:57;;;;;;;2.33;1.30;;;21.10;60.40;;;;;;6204795;28;87935;-68
2023/04/01 00:40:59;;;;;;;2.05;1.10;;;21.10;60.40;;;;;;6207115;28;89954;-68
2023/04/01 00:44:19;;;;;;;3.15;1.70;;;21.10;60.30;;;;;;6202563;28;89400;-68
2023/04/01 00:47:22;;;;;;;2.65;1.27;;;21.10;60.20;;;;;;6197176;28;88229;-68
2023/04/01 00:50:26;;;;;;;2.17;1.20;;;21.10;60.10;;;;;;6208456;28;89508;-68
2023/04/01 00:53:30;;;;;;;1.27;0.88;;;21.10;60.40;;;;;;6204136;28;88160;-68
2023/04/01 00:56:35;;;;;;;1.48;0.90;;;21.10;60.50;;;;;;6192833;28;89400;-68
2023/04/01 00:59:41;;;;;;;1.58;0.90;;;21.10;60.40;;;;;;6195028;28;89774;-68
2023/04/01 01:02:46;;;;;;;1.45;1.00;;;21.10;60.30;;;;;;6201185;28;88371;-67
2023/04/01 01:06:12;;;;;;;1.05;0.80;;;21.10;60.30;;;;;;6197862;28;89062;-68
2023/04/01 01:09:31;;;;;;;2.78;1.20;;;21.10;60.40;;;;;;6205014;28;89177;-67
2023/04/01 01:12:38;;;;;;;2.70;1.38;;;21.10;60.40;;;;;;6198014;28;90011;-68
2023/04/01 01:15:47;;;;;;;1.60;0.98;;;21.00;60.40;;;;;;6202697;28;89559;-68
2023/04/01 01:18:54;;;;;;;1.30;0.85;;;21.00;60.40;;;;;;6208605;28;87974;-68
2023/04/01 01:22:17;;;;;;;2.25;1.00;;;21.00;60.40;;;;;;6204637;28;88250;-68
2023/04/01 01:25:32;;;;;;;1.73;0.85;;;21.00;60.40;;;;;;6197685;28;89192;-68
2023/04/01 01:28:46;;;;;;;1.20;0.77;;;21.00;60.40;;;;;;6203504;28;89054;-68
2023/04/01 01:31:56;;;;;;;2.83;0.90;;;21.00;60.50;;;;;;6195281;28;88980;-68
2023/04/01 01:35:17;;;;;;;2.40;1.10;;;21.00;60.60;;;;;;6197626;28;88825;-68
2023/04/01 01:38:23;;;;;;;1.85;1.00;;;21.00;60.60;;;;;;6198233;28;88287;-68
2023/04/01 01:41:27;;;;;;;0.98;0.80;;;21.00;60.60;;;;;;6207548;28;89187;-68
2023/04/01 01:44:32;;;;;;;1.85;0.90;;;21.00;60.70;;;;;;6208206;28;89931;-68
2023/04/01 01:47:35;;;;;;;1.27;0.85;;;21.00;60.60;;;;;;6208115;28;89059;-68
2023/04/01 01:50:41;;;;;;;1.92;0.90;;;21.00;60.80;;;;;;6208294;28;89067;-68
2023/04/01 01:53:43;;;;;;;1.42;0.82;;;21.00;60.70;;;;;;6206982;28;89051;-68
2023/04/01 01:56:49;;;;;;;2.13;1.10;;;20.90;60.70;;;;;;6206531;28;89102;-68
2023/04/01 01:59:55;;;;;;;1.70;0.88;;;20.90;60.70;;;;;;6207106;28;88775;-68
2023/04/01 02:02:59;;;;;;;1.52;0.93;;;20.90;60.70;;;;;;6206275;28;89058;-68
2023/04/01 02:06:06;;;;;;;1.65;0.98;;;20.90;60.90;;;;;;6206124;28;88370;-68
2023/04/01 02:09:11;;;;;;;1.52;0.82;;;20.90;61.00;;;;;;6207976;28;89069;-68
2023/04/01 02:12:17;;;;;;;1.50;0.90;;;20.90;61.20;;;;;;6198605;28;90003;-69
2023/04/01 02:15:21;;;;;;;1.35;0.80;;;20.90;61.20;;;;;;6206584;28;90137;-68
2023/04/01 02:18:24;;;;;;;1.42;0.85;;;20.90;61.40;;;;;;6198379;28;88235;-68
2023/04/01 02:21:31;;;;;;;1.20;0.63;;;20.90;61.50;;;;;;6198947;28;89075;-68
2023/04/01 02:24:36;;;;;;;1.10;0.70;;;20.90;61.60;;;;;;6197561;28;89338;-68
2023/04/01 02:27:39;;;;;;;3.83;1.65;;;20.90;61.60;;;;;;6194601;28;89262;-69
2023/04/01 02:30:43;;;;;;;1.65;0.80;;;20.90;61.60;;;;;;6195291;28;89567;-68
2023/04/01 02:33:47;;;;;;;1.00;0.90;;;20.90;61.70;;;;;;6195866;28;89161;-69
2023/04/01 02:36:51;;;;;;;1.23;0.80;;;20.90;61.80;;;;;;6204637;28;88731;-68
2023/04/01 02:39:53;;;;;;;1.55;1.00;;;20.90;61.90;;;;;;6196751;28;89107;-68
2023/04/01 02:42:55;;;;;;;1.33;1.00;;;20.80;61.80;;;;;;6203732;28;89184;-69
2023/04/01 02:45:57;;;;;;;1.42;0.80;;;20.80;61.80;;;;;;6207189;28;90349;-68
2023/04/01 02:48:59;;;;;;;1.15;0.90;;;20.80;61.90;;;;;;6204344;28;87927;-69
2023/04/01 02:52:03;;;;;;;1.17;0.88;;;20.80;61.90;;;;;;6202987;28;89029;-68
2023/04/01 02:55:06;;;;;;;1.90;0.90;;;20.80;61.90;;;;;;6198567;28;89388;-68
2023/04/01 02:58:08;;;;;;;1.35;0.70;;;20.80;62.00;;;;;;6205171;28;89019;-68
2023/04/01 03:01:10;;;;;;;2.38;1.20;;;20.80;62.10;;;;;;6202988;28;89371;-67
2023/04/01 03:04:12;;;;;;;2.42;1.20;;;20.80;62.10;;;;;;6196147;28;89036;-68
2023/04/01 03:07:16;;;;;;;1.45;0.95;;;20.80;62.00;;;;;;6206551;28;88808;-68
2023/04/01 03:10:18;;;;;;;1.27;0.90;;;20.80;62.10;;;;;;6207859;28;89169;-68
2023/04/01 03:13:20;;;;;;;2.20;1.00;;;20.70;62.00;;;;;;6195596;28;87687;-68
2023/04/01 03:16:23;;;;;;;1.52;0.95;;;20.80;62.10;;;;;;6191935;28;89991;-68
2023/04/01 03:19:25;;;;;;;1.75;1.15;;;20.80;62.20;;;;;;6209509;28;89046;-68
2023/04/01 03:22:28;;;;;;;3.28;1.00;;;20.80;62.20;;;;;;6206682;28;89075;-68
2023/04/01 03:25:30;;;;;;;2.22;1.10;;;20.80;62.40;;;;;;6204828;28;89365;-68
2023/04/01 03:28:32;;;;;;;1.20;0.90;;;20.80;62.40;;;;;;6202184;28;89011;-68
2023/04/01 03:31:35;;;;;;;1.90;1.30;;;20.70;62.50;;;;;;6197604;28;89419;-68
2023/04/01 03:34:37;;;;;;;1.80;1.20;;;20.70;62.60;;;;;;6196060;28;90687;-68
2023/04/01 03:37:41;;;;;;;1.63;1.10;;;20.70;62.60;;;;;;6204155;28;88588;-68
2023/04/01 03:40:44;;;;;;;2.45;1.50;;;20.70;62.60;;;;;;6202416;28;89062;-68
2023/04/01 03:43:46;;;;;;;1.75;1.17;;;20.80;62.70;;;;;;6205723;28;88935;-68
2023/04/01 03:46:48;;;;;;;2.35;1.20;;;20.70;62.70;;;;;;6197579;28;90242;-68
2023/04/01 03:49:50;;;;;;;2.42;1.15;;;20.70;62.70;;;;;;6204139;28;89521;-68
2023/04/01 03:52:53;;;;;;;1.73;1.20;;;20.70;62.80;;;;;;6197048;28;89592;-68
2023/04/01 03:55:56;;;;;;;1.98;1.25;;;20.70;62.70;;;;;;6194213;28;89039;-68
2023/04/01 03:58:58;;;;;;;3.30;1.20;;;20.70;62.70;;;;;;6199445;28;89184;-68
2023/04/01 04:02:00;;;;;;;1.85;1.20;;;20.70;62.70;;;;;;6205581;28;89401;-68
2023/04/01 04:05:02;;;;;;;4.93;2.22;;;20.70;62.90;;;;;;6202850;28;89099;-68
2023/04/01 04:08:05;;;;;;;1.50;1.10;;;20.70;62.70;;;;;;6198311;28;88376;-68
2023/04/01 04:11:07;;;;;;;2.13;1.23;;;20.60;62.60;;;;;;6191497;28;89410;-68
2023/04/01 04:14:09;;;;;;;1.63;1.10;;;20.70;62.60;;;;;;6192323;28;89122;-68
2023/04/01 04:17:15;;;;;;;1.83;1.17;;;20.70;62.60;;;;;;6202675;28;90054;-68
2023/04/01 04:20:18;;;;;;;1.38;1.08;;;20.70;62.40;;;;;;6190425;28;89439;-68
2023/04/01 04:23:21;;;;;;;1.90;1.15;;;20.70;62.40;;;;;;6199853;28;87981;-68
2023/04/01 04:26:23;;;;;;;1.77;1.20;;;20.70;62.40;;;;;;6206062;28;89114;-68
2023/04/01 04:29:25;;;;;;;1.27;1.00;;;20.70;62.50;;;;;;6205697;28;89419;-68
2023/04/01 04:32:27;;;;;;;4.57;1.98;;;20.80;62.60;;;;;;6199763;28;89055;-68
2023/04/01 04:35:29;;;;;;;1.42;1.15;;;20.80;62.60;;;;;;6205483;28;89174;-68
2023/04/01 04:38:33;;;;;;;1.63;1.10;;;20.80;62.70;;;;;;6205101;28;88398;-68
2023/04/01 04:41:37;;;;;;;1.45;1.13;;;20.70;62.70;;;;;;6204284;28;89050;-68
2023/04/01 04:44:40;;;;;;;3.33;1.35;;;20.80;62.90;;;;;;6197076;28;89048;-68
2023/04/01 04:47:42;;;;;;;2.13;1.10;;;20.70;62.80;;;;;;6200063;28;90267;-68
2023/04/01 04:50:44;;;;;;;1.33;1.13;;;20.80;62.90;;;;;;6208178;28;89551;-68
2023/04/01 04:53:48;;;;;;;1.55;1.15;;;20.70;62.80;;;;;;6195680;28;89167;-68
2023/04/01 04:56:51;;;;;;;1.60;1.05;;;20.70;62.80;;;;;;6206302;28;89207;-68
2023/04/01 04:59:53;;;;;;;1.60;1.13;;;20.70;62.90;;;;;;6210512;28;89232;-68
2023/04/01 05:02:55;;;;;;;1.38;1.02;;;20.70;62.90;;;;;;6206829;28;89179;-68
2023/04/01 05:05:57;;;;;;;2.88;1.25;;;20.70;63.00;;;;;;6208604;28;89395;-67
2023/04/01 05:09:01;;;;;;;1.55;1.20;;;20.70;63.10;;;;;;6196995;28;87148;-68
2023/04/01 05:12:03;;;;;;;2.20;1.20;;;20.70;63.10;;;;;;6209311;28;89119;-68
2023/04/01 05:15:06;;;;;;;2.65;1.38;;;20.70;63.10;;;;;;6196556;28;89099;-68
2023/04/01 05:18:08;;;;;;;2.58;1.50;;;20.70;63.10;;;;;;6206215;28;90184;-68
2023/04/01 05:21:11;;;;;;;2.03;1.38;;;20.60;63.10;;;;;;6209494;28;89503;-68
2023/04/01 05:24:15;;;;;;;1.63;1.00;;;20.70;63.30;;;;;;6208826;28;89122;-67
2023/04/01 05:27:17;;;;;;;1.73;1.20;;;20.70;63.30;;;;;;6208248;28;89321;-68
2023/04/01 05:30:19;;;;;;;1.67;1.20;;;20.70;63.30;;;;;;6198211;28;89085;-68
2023/04/01 05:33:21;;;;;;;1.48;1.20;;;20.70;63.40;;;;;;6198687;28;89602;-68
2023/04/01 05:36:23;;;;;;;1.80;1.25;;;20.70;63.40;;;;;;6192120;28;88281;-68
2023/04/01 05:39:27;;;;;;;1.63;1.10;;;20.70;63.40;;;;;;6218421;28;89000;-67
2023/04/01 05:42:29;;;;;;;1.35;1.15;;;20.70;63.40;;;;;;6204707;28;89016;-68
2023/04/01 05:45:31;;;;;;;2.72;1.50;;;20.70;63.40;;;;;;6208842;28;88931;-68
2023/04/01 05:48:35;;;;;;;1.75;1.40;;;20.70;63.40;;;;;;6204814;28;90274;-68
2023/04/01 05:51:37;;;;;;;1.42;1.10;;;20.70;63.40;;;;;;6206103;28;89020;-68
2023/04/01 05:54:41;;;;;;;1.67;1.17;;;20.70;63.40;;;;;;6195760;28;89119;-68
2023/04/01 05:57:43;;;;;;;1.60;1.15;;;20.70;63.30;;;;;;6200170;28;87945;-68
2023/04/01 06:00:45;;;;;;;1.67;1.00;;;20.70;63.40;;;;;;6205338;28;89139;-67
2023/04/01 06:03:47;;;;;;;2.50;1.10;;;20.70;63.40;;;;;;6188788;28;89131;-68
2023/04/01 06:06:49;;;;;;;1.30;0.90;;;20.80;63.40;;;;;;6197766;28;89194;-68
2023/04/01 06:09:53;;;;;;;2.05;1.30;;;20.80;63.40;;;;;;6189343;28;88298;-68
2023/04/01 06:13:05;;;;;;;2.28;1.30;;;20.80;63.30;;;;;;6194793;28;89273;-68
2023/04/01 06:16:18;;;;;;;1.50;1.23;;;20.80;63.30;;;;;;6203325;28;88248;-68
2023/04/01 06:19:33;;;;;;;1.52;1.00;;;20.80;63.30;;;;;;6203859;28;89969;-68
2023/04/01 06:23:01;;;;;;;1.48;1.17;;;20.80;63.30;;;;;;6208178;28;88319;-68
2023/04/01 06:26:24;;;;;;;1.58;1.00;;;20.80;63.30;;;;;;6188110;28;89106;-68
2023/04/01 06:29:49;;;;;;;2.15;1.20;;;20.80;63.20;;;;;;6195383;28;89706;-68
2023/04/01 06:33:06;;;;;;;1.52;1.05;;;20.80;63.10;;;;;;6206504;28;89089;-68
2023/04/01 06:36:40;;;;;;;1.70;1.10;;;20.90;63.10;;;;;;6199413;28;89289;-68
2023/04/01 06:40:01;;;;;;;1.23;1.00;;;20.80;63.10;;;;;;6199916;28;89090;-68
2023/04/01 06:43:15;;;;;;;1.10;1.00;;;20.90;63.00;;;;;;6202234;28;88598;-68
2023/04/01 06:46:25;;;;;;;1.25;0.90;;;20.90;62.90;;;;;;6196899;28;89108;-68
2023/04/01 06:49:42;;;;;;;1.20;0.90;;;20.90;62.70;;;;;;6185245;28;87990;-68
2023/04/01 06:52:55;;;;;;;1.10;0.85;;;20.90;62.60;;;;;;6184277;28;89994;-68
2023/04/01 06:56:01;;;;;;;1.25;0.80;;;20.90;62.50;;;;;;6196131;28;89124;-68
2023/04/01 06:59:11;;;;;;;1.67;1.00;;;20.90;62.40;;;;;;6208411;28;88168;-68
2023/04/01 07:02:25;;;;;;;0.85;0.80;;;20.90;62.20;;;;;;6205250;28;89748;-68
2023/04/01 07:05:29;;;;;;;1.50;1.00;;;20.90;62.20;;;;;;6207588;28;89233;-68
2023/04/01 07:08:36;;;;;;;1.13;0.85;;;20.90;62.00;;;;;;6204509;28;89022;-68
2023/04/01 07:11:39;;;;;;;1.63;0.80;;;20.90;62.00;;;;;;6206217;28;89100;-68
2023/04/01 07:14:44;;;;;;;0.73;0.73;;;20.90;62.10;;;;;;6208455;28;88262;-68
2023/04/01 07:17:53;;;;;;;1.35;0.77;;;20.90;62.00;;;;;;6206319;28;90238;-68
2023/04/01 07:20:56;;;;;;;1.02;0.70;;;20.90;61.90;;;;;;6198918;28;89008;-68
2023/04/01 07:24:04;;;;;;;4.97;2.05;;;20.90;61.90;;;;;;6203242;28;89992;-68
2023/04/01 07:27:10;;;;;;;0.73;0.60;;;20.90;61.70;;;;;;6204985;28;89104;-68
2023/04/01 07:30:17;;;;;;;0.85;0.70;;;20.90;61.70;;;;;;6206878;28;89144;-67
2023/04/01 07:33:27;;;;;;;0.88;0.70;;;21.00;61.60;;;;;;6206141;28;89136;-68
2023/04/01 07:36:37;;;;;;;1.00;0.80;;;20.90;61.50;;;;;;6186573;28;89086;-68
2023/04/01 07:39:49;;;;;;;1.00;0.82;;;20.90;61.40;;;;;;6194451;28;89012;-68
2023/04/01 07:43:06;;;;;;;0.68;0.60;;;20.90;61.30;;;;;;6197402;28;89164;-68
2023/04/01 07:46:22;;;;;;;1.00;0.80;;;20.90;61.30;;;;;;6203362;28;88287;-68
2023/04/01 07:49:31;;;;;;;1.08;0.75;;;20.90;61.20;;;;;;6196164;28;89313;-68
2023/04/01 07:52:40;;;;;;;0.93;0.70;;;20.90;61.20;;;;;;6206029;28;89145;-68
2023/04/01 07:55:48;;;;;;;1.40;0.88;;;20.90;61.20;;;;;;6205618;28;88851;-68
2023/04/01 07:59:00;;;;;;;1.00;0.80;;;20.90;61.20;;;;;;6201087;28;89117;-68
2023/04/01 08:02:12;;;;;;;0.95;0.70;;;20.90;61.10;;;;;;6204242;28;87970;-68
2023/04/01 08:05:23;;;;;;;1.40;0.70;;;20.90;61.00;;;;;;6197241;28;89097;-68
2023/04/01 08:08:37;;;;;;;1.30;0.80;;;20.90;60.90;;;;;;6209951;28;89364;-68
2023/04/01 08:11:53;;;;;;;1.15;0.82;;;20.90;60.90;;;;;;6206583;28;89094;-68
2023/04/01 08:15:08;;;;;;;1.30;0.85;;;20.90;60.90;;;;;;6201628;28;89055;-68
2023/04/01 08:18:22;;;;;;;1.63;0.95;;;20.90;61.80;;;;;;6205942;28;88749;-68
2023/04/01 08:21:29;;;;;;;1.00;0.88;;;20.90;60.70;;;;;;6191455;28;89155;-68
2023/04/01 08:24:36;;;;;;;1.00;0.80;;;20.90;60.70;;;;;;6190209;28;88964;-68
2023/04/01 08:27:42;;;;;;;2.00;1.23;;;21.00;60.70;;;;;;6204110;28;90010;-68
2023/04/01 08:30:48;;;;;;;1.48;0.88;;;20.90;60.70;;;;;;6206848;28;89074;-68
2023/04/01 08:33:55;;;;;;;0.80;0.52;;;20.90;60.70;;;;;;6203059;28;89114;-68
2023/04/01 08:37:02;;;;;;;0.75;0.70;;;20.90;60.70;;;;;;6183113;28;89255;-67
2023/04/01 08:40:26;;;;;;;1.38;0.90;;;20.90;60.70;;;;;;6195895;28;89578;-68
2023/04/01 08:44:00;;;;;;;2.17;1.15;;;21.00;60.70;;;;;;6191529;28;88010;-68
2023/04/01 08:47:29;;;;;;;1.48;0.85;;;20.90;60.50;;;;;;6198803;28;89216;-68
2023/04/01 08:50:45;;;;;;;1.10;0.80;;;20.90;60.40;;;;;;6205697;28;88293;-68
2023/04/01 08:54:10;;;;;;;1.40;0.77;;;21.00;60.50;;;;;;6202565;28;89056;-68
2023/04/01 08:57:21;;;;;;;1.30;0.80;;;20.90;60.30;;;;;;6189163;28;88820;-68
2023/04/01 09:00:31;;;;;;;1.65;0.75;;;21.00;60.30;;;;;;6189339;28;90009;-68
2023/04/01 09:03:45;;;;;;;2.97;1.20;;;20.90;60.20;;;;;;6203442;28;89031;-68
2023/04/01 09:07:00;;;;;;;1.40;0.90;;;20.90;60.20;;;;;;6196161;28;89256;-69
2023/04/01 09:10:25;;;;;;;1.15;0.90;;;20.90;60.20;;;;;;6200420;28;89165;-69
2023/04/01 09:14:08;;;;;;;1.10;0.90;;;20.90;60.20;;;;;;6201915;28;88995;-69
2023/04/01 09:17:35;;;;;;;1.02;0.80;;;20.90;60.10;;;;;;6193688;28;89059;-68
2023/04/01 09:21:13;;;;;;;3.88;1.73;;;21.00;60.20;;;;;;6178788;28;89252;-69
2023/04/01 09:24:27;;;;;;;1.55;1.00;;;21.00;60.20;;;;;;6124843;28;87397;-68
2023/04/01 09:27:30;;;;;;;1.88;0.93;;;21.00;60.20;;;;;;6198296;28;89048;-69
2023/04/01 09:30:56;;;;;;;1.42;0.90;;;21.00;60.20;;;;;;6205435;28;89062;-68
2023/04/01 09:34:43;;;;;;;2.50;1.23;;;21.00;60.20;;;;;;6180942;28;90121;-69
2023/04/01 09:37:55;;;;;;;1.48;1.10;;;21.00;60.20;;;;;;6207859;28;88262;-68
2023/04/01 09:41:02;;;;;;;1.85;1.10;;;20.90;60.10;;;;;;6201741;28;88162;-69
2023/04/01 09:44:12;;;;;;;1.92;1.15;;;21.00;60.30;;;;;;6198004;28;89178;-69
2023/04/01 09:47:29;;;;;;;1.27;1.05;;;20.90;60.20;;;;;;6204333;28;89146;-69
2023/04/01 09:50:48;;;;;;;1.50;1.10;;;20.90;60.20;;;;;;6197028;28;89119;-69
2023/04/01 09:54:04;;;;;;;1.23;1.10;;;20.90;60.20;;;;;;6196336;28;88724;-69
2023/04/01 09:57:34;;;;;;;2.38;1.45;;;20.90;60.20;;;;;;6208186;28;88764;-68
2023/04/01 10:01:07;;;;;;;2.13;1.27;;;21.00;60.30;;;;;;6193059;28;89361;-68
2023/04/01 10:04:42;;;;;;;2.60;1.00;;;20.90;60.30;;;;;;6209367;28;89083;-68
2023/04/01 10:08:19;;;;;;;3.35;1.38;;;21.00;60.40;;;;;;6207431;28;90021;-68
2023/04/01 10:11:55;;;;;;;1.40;1.10;;;21.00;60.40;;;;;;6208047;28;89049;-69
2023/04/01 10:15:23;;;;;;;1.65;1.25;;;21.00;60.40;;;;;;6181490;28;89560;-68
2023/04/01 10:19:11;;;;;;;1.30;1.20;;;21.00;60.40;;;;;;6180103;28;88346;-68
2023/04/01 10:22:41;;;;;;;2.35;1.45;;;20.90;60.30;;;;;;6184915;28;89325;-68
2023/04/01 10:26:19;;;;;;;1.90;1.40;;;21.00;60.20;;;;;;6207984;28;89039;-68
2023/04/01 10:29:48;;;;;;;1.92;1.20;;;21.00;60.10;;;;;;6203327;28;89139;-68
2023/04/01 10:33:31;;;;;;;2.47;1.02;;;20.90;59.90;;;;;;6206457;28;88316;-68
2023/04/01 10:36:51;;;;;;;1.00;0.90;;;21.00;59.90;;;;;;6205888;28;89123;-68
2023/04/01 10:40:22;;;;;;;1.50;1.00;;;21.00;60.00;;;;;;6197798;28;88157;-68
2023/04/01 10:44:17;;;;;;;1.02;0.80;;;21.00;59.90;;;;;;6195370;28;90772;-68
2023/04/01 10:48:02;;;;;;;1.10;0.88;;;21.00;59.90;;;;;;6195470;28;89254;-68
2023/04/01 10:51:17;;;;;;;1.52;0.98;;;21.00;59.80;;;;;;6204323;28;89012;-68
2023/04/01 10:54:41;;;;;;;1.20;0.90;;;21.00;59.70;;;;;;6207004;28;89144;-68
2023/04/01 10:58:21;;;;;;;0.82;0.80;;;21.00;59.70;;;;;;6206587;28;89218;-69
2023/04/01 11:01:52;;;;;;;1.65;0.70;;;21.00;59.70;;;;;;6196105;28;90807;-68
2023/04/01 11:05:30;;;;;;;1.55;0.90;;;21.00;59.70;;;;;;6188285;28;88962;-69
2023/04/01 11:09:07;;;;;;;1.30;0.88;;;21.00;59.70;;;;;;6189021;28;88440;-69
2023/04/01 11:12:53;;;;;;;1.38;0.80;;;21.00;59.60;;;;;;6162968;28;89195;-69
2023/04/01 11:16:33;;;;;;;1.00;0.90;;;21.00;59.40;;;;;;6204697;28;89138;-68
2023/04/01 11:20:05;;;;;;;1.08;0.90;;;21.00;59.50;;;;;;6182914;28;90233;-69
2023/04/01 11:23:30;;;;;;;1.50;0.98;;;21.00;59.50;;;;;;6197607;28;87940;-69
2023/04/01 11:26:52;;;;;;;0.90;0.70;;;21.00;59.40;;;;;;6205498;28;88167;-69
2023/04/01 11:30:08;;;;;;;1.00;0.80;;;21.00;59.50;;;;;;6195676;28;89086;-68
2023/04/01 11:33:20;;;;;;;1.55;0.82;;;21.00;59.50;;;;;;6189599;28;89458;-69
2023/04/01 11:36:43;;;;;;;1.42;0.95;;;21.00;59.50;;;;;;6200169;28;87932;-68
2023/04/01 11:40:06;;;;;;;0.90;0.70;;;21.00;59.50;;;;;;6205184;28;88992;-69
2023/04/01 11:43:15;;;;;;;1.63;0.88;;;21.00;59.70;;;;;;6195491;28;88383;-69
2023/04/01 11:46:24;;;;;;;1.75;0.88;;;21.00;59.90;;;;;;6187657;28;89059;-69
2023/04/01 11:49:37;;;;;;;1.70;0.90;;;21.00;60.00;;;;;;6185164;28;89032;-69
2023/04/01 11:53:02;;;;;;;2.83;1.00;;;21.00;60.20;;;;;;6198249;28;90036;-68
2023/04/01 11:56:14;;;;;;;1.95;1.02;;;21.00;60.40;;;;;;6189267;28;89218;-68
2023/04/01 11:59:48;;;;;;;2.30;0.80;;;21.10;60.60;;;;;;6198151;28;88400;-69
2023/04/01 12:03:11;;;;;;;1.77;0.90;;;21.00;60.70;;;;;;6203272;28;88727;-68
2023/04/01 12:06:21;;;;;;;2.50;1.00;;;21.10;60.90;;;;;;6183601;28;88910;-69
2023/04/01 12:09:32;;;;;;;2.15;1.15;;;21.10;61.10;;;;;;6203216;28;89347;-68
2023/04/01 12:12:40;;;;;;;2.83;1.40;;;21.10;61.20;;;;;;6198071;28;88917;-68
2023/04/01 12:15:58;;;;;;;1.80;0.80;;;21.10;61.40;;;;;;6195498;28;88339;-69
2023/04/01 12:19:11;;;;;;;2.05;1.50;;;21.10;61.40;;;;;;6200981;28;88986;-71
2023/04/01 12:22:30;;;;;;;4.38;1.48;;;21.10;63.00;;;;;;6197706;28;89144;-68
2023/04/01 12:25:55;;;;;;;5.13;1.50;;;21.10;65.80;;;;;;6198984;28;90333;-70
2023/04/01 12:29:09;;;;;;;3.15;1.20;;;21.10;64.30;;;;;;6202865;28;89124;-69
2023/04/01 12:32:20;;;;;;;2.22;1.20;;;21.10;63.70;;;;;;6194395;28;89404;-70
2023/04/01 12:35:28;;;;;;;2.25;1.00;;;21.20;63.60;;;;;;6192440;28;89106;-70
2023/04/01 12:38:39;;;;;;;3.72;1.30;;;21.20;63.80;;;;;;6182685;28;89051;-69
2023/04/01 12:41:47;;;;;;;3.25;1.30;;;21.20;64.20;;;;;;6205481;28;90142;-70
2023/04/01 12:45:08;;;;;;;1.98;1.20;;;21.20;64.30;;;;;;6194873;28;89140;-70
2023/04/01 12:48:28;;;;;;;4.50;1.23;;;21.30;64.30;;;;;;6183733;28;88396;-70
2023/04/01 12:51:48;;;;;;;3.70;1.60;;;21.30;64.10;;;;;;6204422;28;89066;-70
2023/04/01 12:55:05;;;;;;;4.00;1.50;;;21.30;63.90;;;;;;6204911;28;91019;-69
2023/04/01 12:58:46;;;;;;;2.05;1.33;;;21.30;63.90;;;;;;6197635;28;89996;-70
2023/04/01 13:02:08;;;;;;;2.30;1.13;;;21.30;63.90;;;;;;6195475;28;89154;-69
2023/04/01 13:05:49;;;;;;;1.70;1.20;;;21.30;63.90;;;;;;6205061;28;89217;-70
2023/04/01 13:09:02;;;;;;;2.22;1.60;;;21.30;63.80;;;;;;6196826;28;89272;-70
2023/04/01 13:12:35;;;;;;;3.13;1.73;;;21.30;63.80;;;;;;6208233;28;88927;-70
2023/04/01 13:15:45;;;;;;;1.90;1.70;;;21.30;63.80;;;;;;6196768;28;88759;-70
2023/04/01 13:19:01;;;;;;;3.42;1.90;;;21.30;63.80;;;;;;6216143;28;89559;-70
2023/04/01 13:22:11;;;;;;;2.88;2.03;;;21.30;63.80;;;;;;6186819;28;88813;-70
2023/04/01 13:25:27;;;;;;;2.83;2.05;;;21.30;63.80;;;;;;6197519;28;89037;-70
2023/04/01 13:28:33;;;;;;;2.83;2.30;;;21.40;63.90;;;;;;6209225;28;89043;-70
2023/04/01 13:31:46;;;;;;;4.90;2.22;;;21.30;63.90;;;;;;6201249;28;90679;-70
2023/04/01 13:35:00;;;;;;;2.72;2.30;;;21.30;63.90;;;;;;6204802;28;89107;-70
2023/04/01 13:38:17;;;;;;;2.97;2.58;;;21.40;64.00;;;;;;6208710;28;88938;-70
2023/04/01 13:41:32;;;;;;;2.78;2.50;;;21.30;64.00;;;;;;6209084;28;89356;-71
2023/04/01 13:44:38;;;;;;;2.60;2.33;;;21.30;64.00;;;;;;6207713;28;88961;-70
2023/04/01 13:48:08;;;;;;;2.88;2.65;;;21.30;64.10;;;;;;6207678;28;89499;-70
2023/04/01 13:51:27;;;;;;;3.10;2.80;;;21.30;64.10;;;;;;6207358;28;89046;-70
2023/04/01 13:55:02;;;;;;;3.85;2.90;;;21.30;64.20;;;;;;6200949;28;88311;-70
2023/04/01 13:58:39;;;;;;;4.80;3.58;;;21.30;64.30;;;;;;6193829;28;89093;-70
2023/04/01 14:01:49;;;;;;;4.53;3.50;;;21.30;64.40;;;;;;6157666;28;89229;-70
2023/04/01 14:05:10;;;;;;;5.88;3.60;;;21.30;64.60;;;;;;6195473;28;90023;-71
2023/04/01 14:08:27;;;;;;;4.85;3.45;;;21.30;65.00;;;;;;6201021;28;89272;-70
2023/04/01 14:11:38;;;;;;;6.20;3.95;;;21.40;65.50;;;;;;6208244;28;89228;-71
2023/04/01 14:14:59;;;;;;;8.95;3.80;;;21.40;66.00;;;;;;6208010;28;87917;-69
2023/04/01 14:18:19;;;;;;;6.85;3.60;;;21.40;66.10;;;;;;6196916;28;89099;-69
2023/04/01 14:21:39;;;;;;;11.35;3.65;;;21.40;65.90;;;;;;6208749;28;89090;-70
2023/04/01 14:24:59;;;;;;;6.95;3.63;;;21.30;65.80;;;;;;6199471;28;89018;-69
2023/04/01 14:28:14;;;;;;;6.82;3.58;;;21.40;66.10;;;;;;6198094;28;88337;-69
2023/04/01 14:31:30;;;;;;;7.90;3.90;;;21.40;66.20;;;;;;6202858;28;89124;-69
2023/04/01 14:34:55;;;;;;;6.85;3.60;;;21.40;66.20;;;;;;6196822;28;88982;-70
2023/04/01 14:38:09;;;;;;;8.55;3.67;;;21.30;66.30;;;;;;6200742;28;90101;-70
2023/04/01 14:41:24;;;;;;;6.72;3.83;;;21.40;66.40;;;;;;6206032;28;89023;-70
2023/04/01 14:44:50;;;;;;;7.22;3.90;;;21.30;66.30;;;;;;6203988;28;89545;-70
2023/04/01 14:47:57;;;;;;;9.02;4.05;;;21.30;66.40;;;;;;6203706;28;88917;-70
2023/04/01 14:51:09;;;;;;;6.47;3.92;;;21.40;66.60;;;;;;6207304;28;89148;-70
2023/04/01 14:54:22;;;;;;;7.93;4.28;;;21.40;66.60;;;;;;6203270;28;89653;-70
2023/04/01 14:57:26;;;;;;;7.55;4.30;;;21.30;66.60;;;;;;6205606;28;90471;-70
2023/04/01 15:00:40;;;;;;;7.88;4.35;;;21.30;66.60;;;;;;6206232;28;88239;-69
2023/04/01 15:03:54;;;;;;;6.10;4.20;;;21.30;66.60;;;;;;6202862;28;89025;-70
2023/04/01 15:07:10;;;;;;;5.55;4.20;;;21.30;66.70;;;;;;6198655;28;89248;-70
2023/04/01 15:10:28;;;;;;;7.63;4.05;;;21.30;66.70;;;;;;6206769;28;89986;-70
2023/04/01 15:13:53;;;;;;;7.82;4.30;;;21.30;66.80;;;;;;6205714;28;88017;-70
2023/04/01 15:17:09;;;;;;;5.45;4.18;;;21.40;66.90;;;;;;6193298;28;89422;-69
2023/04/01 15:20:40;;;;;;;7.35;4.63;;;21.40;66.90;;;;;;6189177;28;89411;-70
2023/04/01 15:23:51;;;;;;;6.18;4.90;;;21.30;66.90;;;;;;6198537;28;89111;-70
2023/04/01 15:27:11;;;;;;;6.80;4.30;;;21.30;66.80;;;;;;6194630;28;89007;-70
2023/04/01 15:30:30;;;;;;;5.63;4.30;;;21.40;66.90;;;;;;6195694;28;89166;-69
2023/04/01 15:33:53;;;;;;;5.78;4.63;;;21.30;66.90;;;;;;6195655;28;88421;-70
2023/04/01 15:37:05;;;;;;;6.20;4.60;;;21.30;66.90;;;;;;6193543;28;89153;-70
2023/04/01 15:40:21;;;;;;;5.20;4.70;;;21.40;67.00;;;;;;6208653;28;89146;-69
2023/04/01 15:43:33;;;;;;;7.65;4.60;;;21.40;67.90;;;;;;6193953;28;90123;-69
2023/04/01 15:46:45;;;;;;;7.35;4.40;;;21.30;66.90;;;;;;6205727;28;89126;-69
2023/04/01 15:49:55;;;;;;;7.60;5.10;;;21.40;67.10;;;;;;6207143;28;89086;-69
2023/04/01 15:53:08;;;;;;;6.88;4.72;;;21.40;67.10;;;;;;6196015;28;89050;-69
2023/04/01 15:56:23;;;;;;;7.03;5.10;;;21.40;67.10;;;;;;6182316;28;89048;-69
2023/04/01 15:59:45;;;;;;;6.32;4.63;;;21.40;67.10;;;;;;6202146;28;88928;-69
2023/04/01 16:02:50;;;;;;;5.70;4.78;;;21.40;67.10;;;;;;6195760;28;88038;-69
2023/04/01 16:06:11;;;;;;;6.20;4.88;;;21.40;67.10;;;;;;6191843;28;88327;-70
2023/04/01 16:09:44;;;;;;;6.50;4.88;;;21.40;67.10;;;;;;6195348;28;89111;-70
2023/04/01 16:12:59;;;;;;;5.20;4.60;;;21.40;67.10;;;;;;6197198;28;89259;-69
2023/04/01 16:16:13;;;;;;;4.63;4.22;;;21.40;67.00;;;;;;6197557;28;89675;-69
2023/04/01 16:19:33;;;;;;;6.18;4.60;;;21.40;67.10;;;;;;6202305;28;87792;-70
2023/04/01 16:22:39;;;;;;;5.00;4.50;;;21.40;67.00;;;;;;6197475;28;89181;-69
2023/04/01 16:25:50;;;;;;;5.70;5.07;;;21.40;67.00;;;;;;6203570;28;89107;-70
2023/04/01 16:28:58;;;;;;;5.70;5.10;;;21.40;67.00;;;;;;6204173;28;89234;-70
2023/04/01 16:32:16;;;;;;;5.18;4.68;;;21.40;67.00;;;;;;6192685;28;89055;-69
2023/04/01 16:35:32;;;;;;;5.15;4.65;;;21.40;67.00;;;;;;6191568;28;89030;-69
2023/04/01 16:38:40;;;;;;;5.20;4.70;;;21.40;67.00;;;;;;6195870;28;87535;-70
2023/04/01 16:41:51;;;;;;;5.43;4.93;;;21.40;67.00;;;;;;6201446;28;89022;-69
2023/04/01 16:44:57;;;;;;;5.10;4.60;;;21.40;67.00;;;;;;6202187;28;88065;-69